createdAt,value
2022-11-24T00:00:51.983Z,1.30
2022-11-24T00:03:18.976Z,2.00
2022-11-24T00:05:45.832Z,1.50
2022-11-24T00:08:12.726Z,1.20
2022-11-24T00:10:39.215Z,1.48
2022-11-24T00:13:05.698Z,1.75
2022-11-24T00:15:32.188Z,1.48
2022-11-24T00:17:58.625Z,1.10
2022-11-24T00:20:25.071Z,1.03
2022-11-24T00:22:51.704Z,1.10
2022-11-24T00:25:18.185Z,1.30
2022-11-24T00:27:44.803Z,0.82
2022-11-24T00:30:11.780Z,0.68
2022-11-24T00:32:38.358Z,1.10
2022-11-24T00:35:05.364Z,1.00
2022-11-24T00:37:32.004Z,1.17
2022-11-24T00:39:58.434Z,1.20
2022-11-24T00:42:24.867Z,1.13
2022-11-24T00:44:51.306Z,1.00
2022-11-24T00:47:17.865Z,1.13
2022-11-24T00:49:44.359Z,1.42
2022-11-24T00:52:10.787Z,1.13
2022-11-24T00:54:37.292Z,1.00
2022-11-24T00:57:03.758Z,0.90
2022-11-24T00:59:32.594Z,1.15
2022-11-24T01:01:59.145Z,1.05
2022-11-24T01:04:25.665Z,1.40
2022-11-24T01:06:52.099Z,1.42
2022-11-24T01:09:18.595Z,1.40
2022-11-24T01:12:04.034Z,0.90
2022-11-24T01:14:32.899Z,1.38
2022-11-24T01:16:59.917Z,1.10
2022-11-24T01:19:26.377Z,1.02
2022-11-24T01:21:53.220Z,1.10
2022-11-24T01:24:19.723Z,1.30
2022-11-24T01:26:46.214Z,1.95
2022-11-24T01:29:12.967Z,1.40
2022-11-24T01:31:39.709Z,0.73
2022-11-24T01:34:06.426Z,1.13
2022-11-24T01:36:33.846Z,1.50
2022-11-24T01:39:00.306Z,0.93
2022-11-24T01:41:27.021Z,1.40
2022-11-24T01:43:54.735Z,1.00
2022-11-24T01:46:26.900Z,0.97
2022-11-24T01:49:11.253Z,1.15
2022-11-24T01:51:53.601Z,1.33
2022-11-24T01:54:43.691Z,1.33
2022-11-24T01:57:19.765Z,1.48
2022-11-24T01:59:48.586Z,0.90
2022-11-24T02:02:15.508Z,1.05
2022-11-24T02:04:42.699Z,0.80
2022-11-24T02:07:10.233Z,0.80
2022-11-24T02:09:49.542Z,1.15
2022-11-24T02:12:16.044Z,1.17
2022-11-24T02:14:44.703Z,1.15
2022-11-24T02:17:11.643Z,0.88
2022-11-24T02:19:41.225Z,0.63
2022-11-24T02:22:25.831Z,0.77
2022-11-24T02:25:01.799Z,0.60
2022-11-24T02:27:28.721Z,0.60
2022-11-24T02:29:55.384Z,1.20
2022-11-24T02:32:23.445Z,1.05
2022-11-24T02:34:49.932Z,1.10
2022-11-24T02:37:16.404Z,1.03
2022-11-24T02:39:42.946Z,0.80
2022-11-24T02:42:13.576Z,0.60
2022-11-24T02:44:46.261Z,0.90
2022-11-24T02:47:13.809Z,0.90
2022-11-24T02:49:40.594Z,0.77
2022-11-24T02:52:07.612Z,0.75
2022-11-24T02:54:34.350Z,0.70
2022-11-24T02:57:01.307Z,0.90
2022-11-24T02:59:27.813Z,0.60
2022-11-24T03:01:54.386Z,0.70
2022-11-24T03:04:21.023Z,0.70
2022-11-24T03:06:47.637Z,0.45
2022-11-24T03:09:14.083Z,1.08
2022-11-24T03:11:40.622Z,0.80
2022-11-24T03:14:07.372Z,0.83
2022-11-24T03:16:33.872Z,1.05
2022-11-24T03:19:00.417Z,0.73
2022-11-24T03:21:26.856Z,0.75
2022-11-24T03:23:54.117Z,1.15
2022-11-24T03:26:22.446Z,0.80
2022-11-24T03:28:49.413Z,0.60
2022-11-24T03:31:16.046Z,1.17
2022-11-24T03:33:42.670Z,0.57
2022-11-24T03:36:09.575Z,0.52
2022-11-24T03:38:36.141Z,0.80
2022-11-24T03:41:02.636Z,0.93
2022-11-24T03:43:29.233Z,1.27
2022-11-24T03:45:55.835Z,1.10
2022-11-24T03:48:22.444Z,0.60
2022-11-24T03:50:57.749Z,0.63
2022-11-24T03:53:26.389Z,0.90
2022-11-24T03:55:53.620Z,0.82
2022-11-24T03:58:20.574Z,0.50
2022-11-24T04:00:51.404Z,0.80
2022-11-24T04:03:17.917Z,0.80
2022-11-24T04:05:44.673Z,1.00
2022-11-24T04:08:11.413Z,0.60
2022-11-24T04:10:38.663Z,1.40
2022-11-24T04:13:14.446Z,1.25
2022-11-24T04:15:42.617Z,0.77
2022-11-24T04:18:09.953Z,0.63
2022-11-24T04:20:36.668Z,0.98
2022-11-24T04:23:03.565Z,1.08
2022-11-24T04:25:30.441Z,0.70
2022-11-24T04:27:57.984Z,0.80
2022-11-24T04:30:26.425Z,0.60
2022-11-24T04:32:53.153Z,0.73
2022-11-24T04:35:19.688Z,1.00
2022-11-24T04:37:46.316Z,0.85
2022-11-24T04:40:13.560Z,1.00
2022-11-24T04:42:40.123Z,0.90
2022-11-24T04:45:08.062Z,1.10
2022-11-24T04:47:34.746Z,0.68
2022-11-24T04:50:01.616Z,1.15
2022-11-24T04:52:30.281Z,0.63
2022-11-24T04:54:56.880Z,1.00
2022-11-24T04:57:25.664Z,1.45
2022-11-24T04:59:53.165Z,0.90
2022-11-24T05:02:20.446Z,1.00
2022-11-24T05:04:47.166Z,0.90
2022-11-24T05:07:18.294Z,0.90
2022-11-24T05:10:05.321Z,1.15
2022-11-24T05:12:31.961Z,1.13
2022-11-24T05:14:59.420Z,0.90
2022-11-24T05:17:33.744Z,0.70
2022-11-24T05:20:00.647Z,0.47
2022-11-24T05:22:29.003Z,0.57
2022-11-24T05:24:55.708Z,0.38
2022-11-24T05:27:22.218Z,0.40
2022-11-24T05:29:48.961Z,0.40
2022-11-24T05:32:15.484Z,0.40
2022-11-24T05:34:41.961Z,0.32
2022-11-24T05:37:08.497Z,0.32
2022-11-24T05:39:36.626Z,0.30
2022-11-24T05:42:24.751Z,0.30
2022-11-24T05:44:51.857Z,0.30
2022-11-24T05:47:19.071Z,0.30
2022-11-24T05:49:45.569Z,0.22
2022-11-24T05:52:12.339Z,0.13
2022-11-24T05:54:38.913Z,0.20
2022-11-24T05:57:05.501Z,0.30
2022-11-24T05:59:32.120Z,0.22
2022-11-24T06:01:58.708Z,0.10
2022-11-24T06:04:25.583Z,0.10
2022-11-24T06:06:52.151Z,0.27
2022-11-24T06:09:18.742Z,0.13
2022-11-24T06:11:47.577Z,0.20
2022-11-24T06:14:14.501Z,0.35
2022-11-24T06:16:41.107Z,0.20
2022-11-24T06:19:07.744Z,0.40
2022-11-24T06:21:34.252Z,0.20
2022-11-24T06:24:00.893Z,0.10
2022-11-24T06:26:27.788Z,0.30
2022-11-24T06:28:54.451Z,0.20
2022-11-24T06:31:20.980Z,0.20
2022-11-24T06:33:47.724Z,0.43
2022-11-24T06:36:14.966Z,0.22
2022-11-24T06:38:41.599Z,0.25
2022-11-24T06:41:12.835Z,0.32
2022-11-24T06:43:39.493Z,0.30
2022-11-24T06:46:06.278Z,0.40
2022-11-24T06:48:33.205Z,0.50
2022-11-24T06:51:01.460Z,0.35
2022-11-24T06:53:32.511Z,1.02
2022-11-24T06:56:00.632Z,0.67
2022-11-24T06:58:27.089Z,1.15
2022-11-24T07:00:54.238Z,0.80
2022-11-24T07:03:20.811Z,0.90
2022-11-24T07:05:47.416Z,1.40
2022-11-24T07:08:17.730Z,1.20
2022-11-24T07:10:44.986Z,1.70
2022-11-24T07:13:11.492Z,1.85
2022-11-24T07:15:38.041Z,2.13
2022-11-24T07:18:04.784Z,1.77
2022-11-24T07:20:31.239Z,2.10
2022-11-24T07:22:58.615Z,2.55
2022-11-24T07:25:25.625Z,2.35
2022-11-24T07:27:59.692Z,2.35
2022-11-24T07:30:28.431Z,2.55
2022-11-24T07:33:02.453Z,2.47
2022-11-24T07:35:30.322Z,2.65
2022-11-24T07:37:58.386Z,2.83
2022-11-24T07:40:26.976Z,2.42
2022-11-24T07:42:54.246Z,2.28
2022-11-24T07:45:21.289Z,2.47
2022-11-24T07:47:47.886Z,2.72
2022-11-24T07:50:14.538Z,2.60
2022-11-24T07:53:36.647Z,2.53
2022-11-24T07:56:05.485Z,2.42
2022-11-24T07:58:34.792Z,2.20
2022-11-24T11:55:34.844Z,1.50
2022-11-24T12:07:42.590Z,1.20
2022-11-24T12:10:47.265Z,0.85
2022-11-24T12:13:32.122Z,1.35
2022-11-24T12:16:27.819Z,1.33
2022-11-24T12:19:00.095Z,1.05
2022-11-24T12:21:55.475Z,1.58
2022-11-24T12:25:22.338Z,1.30
2022-11-24T12:28:12.910Z,0.82
2022-11-24T12:31:13.693Z,1.10
2022-11-24T12:34:01.292Z,0.88
2022-11-24T12:36:52.495Z,1.25
2022-11-24T12:39:34.542Z,1.00
2022-11-24T12:42:08.323Z,1.08
2022-11-24T12:44:39.532Z,0.90
2022-11-24T12:47:41.122Z,1.02
2022-11-24T12:50:16.372Z,1.05
2022-11-24T12:52:57.172Z,0.85
2022-11-24T12:55:26.397Z,0.93
2022-11-24T12:58:11.092Z,1.00
2022-11-24T13:01:20.225Z,1.30
2022-11-24T13:04:04.041Z,1.23
2022-11-24T13:06:51.497Z,0.90
2022-11-24T13:09:18.205Z,1.25
2022-11-24T13:11:47.087Z,0.87
2022-11-24T13:14:18.271Z,1.17
2022-11-24T13:17:42.142Z,1.15
2022-11-24T13:20:20.351Z,1.42
2022-11-24T13:22:49.972Z,1.10
2022-11-24T13:25:20.694Z,1.27
2022-11-24T13:27:52.031Z,0.75
2022-11-24T13:30:33.689Z,0.90
2022-11-24T13:33:16.448Z,1.02
2022-11-24T13:36:04.308Z,1.88
2022-11-24T13:38:51.485Z,1.20
2022-11-24T13:41:33.275Z,0.95
2022-11-24T13:44:15.127Z,0.93
2022-11-24T13:47:06.331Z,0.95
2022-11-24T13:49:46.473Z,0.98
2022-11-24T13:52:41.057Z,0.93
2022-11-24T13:55:13.780Z,1.20
2022-11-24T13:57:46.200Z,0.82
2022-11-24T14:00:24.965Z,0.88
2022-11-24T14:02:55.060Z,1.50
2022-11-24T14:05:27.410Z,1.00
2022-11-24T14:07:54.420Z,1.23
2022-11-24T14:10:29.410Z,1.00
2022-11-24T14:13:24.088Z,1.10
2022-11-24T14:15:59.770Z,1.17
2022-11-24T14:18:27.364Z,1.57
2022-11-24T14:20:53.826Z,0.98
2022-11-24T14:23:20.250Z,1.25
2022-11-24T14:25:51.744Z,0.80
2022-11-24T14:28:29.186Z,0.93
2022-11-24T14:31:09.719Z,1.47
2022-11-24T14:33:36.719Z,1.20
2022-11-24T14:36:03.390Z,1.58
2022-11-24T14:38:29.886Z,1.02
2022-11-24T14:40:56.621Z,0.85
2022-11-24T14:43:23.157Z,0.80
2022-11-24T14:45:53.168Z,1.10
2022-11-24T14:48:25.404Z,0.80
2022-11-24T14:50:52.575Z,0.70
2022-11-24T14:53:26.277Z,0.88
2022-11-24T14:56:35.652Z,1.27
2022-11-24T14:59:03.361Z,1.75
2022-11-24T15:01:33.065Z,1.20
2022-11-24T15:04:38.942Z,1.38
2022-11-24T15:07:16.553Z,0.70
2022-11-24T15:09:55.034Z,1.20
2022-11-24T15:12:34.285Z,1.23
2022-11-24T15:15:02.639Z,1.00
2022-11-24T15:17:30.790Z,1.20
2022-11-24T15:20:03.190Z,1.23
2022-11-24T15:22:34.259Z,1.50
2022-11-24T15:25:00.995Z,1.73
2022-11-24T15:27:27.476Z,1.17
2022-11-24T15:29:53.945Z,1.35
2022-11-24T15:32:20.335Z,1.45
2022-11-24T15:34:46.822Z,1.20
2022-11-24T15:37:13.285Z,1.40
2022-11-24T15:39:39.849Z,1.38
2022-11-24T15:42:06.394Z,1.25
2022-11-24T15:44:35.087Z,1.20
2022-11-24T15:47:01.840Z,1.30
2022-11-24T15:49:28.553Z,1.40
2022-11-24T15:51:55.186Z,1.60
2022-11-24T15:54:21.744Z,1.13
2022-11-24T15:56:48.407Z,0.93
2022-11-24T15:59:20.633Z,1.40
2022-11-24T16:01:49.599Z,1.65
2022-11-24T16:04:16.472Z,1.80
2022-11-24T16:06:43.017Z,1.35
2022-11-24T16:09:14.474Z,1.75
2022-11-24T16:11:41.126Z,2.00
2022-11-24T16:14:07.634Z,1.48
2022-11-24T16:16:34.210Z,1.67
2022-11-24T16:19:00.767Z,1.80
2022-11-24T16:21:27.266Z,1.50
2022-11-24T16:23:54.193Z,1.50
2022-11-24T16:26:20.766Z,1.73
2022-11-24T16:28:47.278Z,1.73
2022-11-24T16:31:16.109Z,1.83
2022-11-24T16:33:44.681Z,1.88
2022-11-24T16:36:11.400Z,1.43
2022-11-24T16:38:37.961Z,1.63
2022-11-24T16:41:04.471Z,1.60
2022-11-24T16:43:31.052Z,1.52
2022-11-24T16:46:18.014Z,1.73
2022-11-24T16:48:45.818Z,1.87
2022-11-24T16:51:13.484Z,1.80
2022-11-24T16:53:40.906Z,1.70
2022-11-24T16:56:08.174Z,1.70
2022-11-24T16:58:37.612Z,1.90
2022-11-24T17:01:05.831Z,1.67
2022-11-24T17:03:33.946Z,1.88
2022-11-24T17:06:00.771Z,1.80
2022-11-24T17:08:31.188Z,1.50
2022-11-24T17:10:58.446Z,1.52
2022-11-24T17:13:24.924Z,1.50
2022-11-24T17:15:54.371Z,1.65
2022-11-24T17:18:25.468Z,1.45
2022-11-24T17:20:52.358Z,1.98
2022-11-24T17:23:20.032Z,1.65
2022-11-24T17:25:48.399Z,1.50
2022-11-24T17:28:18.169Z,1.50
2022-11-24T17:30:44.664Z,1.58
2022-11-24T17:33:11.332Z,2.70
2022-11-24T17:35:37.816Z,1.63
2022-11-24T17:38:04.415Z,1.50
2022-11-24T17:40:30.997Z,2.10
2022-11-24T17:43:01.444Z,1.27
2022-11-24T17:45:29.560Z,1.40
2022-11-24T17:47:58.616Z,1.90
2022-11-24T17:50:26.314Z,1.90
2022-11-24T17:52:54.188Z,2.15
2022-11-24T17:55:21.317Z,2.33
2022-11-24T17:57:47.978Z,1.83
2022-11-24T18:00:15.325Z,1.77
2022-11-24T18:02:41.918Z,1.67
2022-11-24T18:05:08.868Z,2.08
2022-11-24T18:07:36.663Z,2.20
2022-11-24T18:10:04.095Z,2.13
2022-11-24T18:12:30.526Z,1.60
2022-11-24T18:14:57.020Z,2.50
2022-11-24T20:39:29.667Z,1.60
2022-11-24T20:41:56.429Z,1.10
2022-11-24T20:44:24.929Z,1.40
2022-11-24T20:46:51.433Z,1.83
2022-11-24T20:49:20.325Z,1.50
2022-11-24T20:51:47.710Z,1.80
2022-11-24T20:54:16.378Z,1.80
2022-11-24T20:56:44.245Z,1.75
2022-11-24T20:59:17.240Z,1.40
2022-11-24T21:01:45.935Z,1.27
2022-11-24T21:04:15.983Z,1.10
2022-11-24T21:06:42.856Z,1.80
2022-11-24T21:09:09.668Z,1.55
2022-11-24T21:11:37.773Z,1.40
2022-11-24T21:14:04.745Z,1.20
2022-11-24T21:16:34.164Z,1.23
2022-11-24T21:19:04.482Z,1.33
2022-11-24T21:21:34.647Z,0.93
2022-11-24T21:24:06.871Z,1.05
2022-11-24T21:26:38.097Z,1.73
2022-11-24T21:29:05.736Z,1.60
2022-11-24T21:31:36.740Z,1.20
2022-11-24T21:34:03.542Z,1.00
2022-11-24T21:36:32.956Z,1.15
2022-11-24T21:38:59.500Z,1.35
2022-11-24T21:41:28.182Z,0.95
2022-11-24T21:43:55.998Z,1.10
2022-11-24T21:46:23.036Z,1.25
2022-11-24T21:48:50.217Z,1.30
2022-11-24T21:51:19.509Z,1.10
2022-11-24T21:53:46.697Z,1.10
2022-11-24T21:56:18.003Z,0.80
2022-11-24T21:58:50.087Z,0.98
2022-11-24T22:01:18.787Z,1.00
2022-11-24T22:03:45.914Z,1.10
2022-11-24T22:06:12.852Z,1.27
2022-11-24T22:08:39.548Z,1.00
2022-11-24T22:11:09.876Z,1.30
2022-11-24T22:13:36.578Z,1.27
2022-11-24T22:16:05.803Z,1.27
2022-11-24T22:18:40.588Z,1.40
2022-11-24T22:21:10.096Z,1.53
2022-11-24T22:23:37.069Z,1.60
2022-11-24T22:26:07.880Z,1.70
2022-11-24T22:28:35.478Z,1.50
2022-11-24T22:31:10.785Z,1.50
2022-11-24T22:33:37.527Z,1.13
2022-11-24T22:36:04.351Z,1.70
2022-11-24T22:38:32.127Z,1.23
2022-11-24T22:41:10.029Z,1.42
2022-11-24T22:43:38.654Z,1.13
2022-11-24T22:46:05.789Z,1.10
2022-11-24T22:48:33.250Z,1.30
2022-11-24T22:51:31.236Z,1.50
2022-11-24T22:54:00.400Z,0.98
2022-11-24T22:56:32.551Z,1.52
2022-11-24T22:59:00.432Z,1.30
2022-11-24T23:01:28.218Z,1.50
2022-11-24T23:03:55.001Z,1.15
2022-11-24T23:06:29.775Z,1.30
2022-11-24T23:08:58.064Z,1.85
2022-11-24T23:11:32.695Z,1.03
2022-11-24T23:14:03.599Z,1.48
2022-11-24T23:16:30.582Z,1.38
2022-11-24T23:18:57.429Z,1.10
2022-11-24T23:21:26.823Z,1.60
2022-11-24T23:23:54.106Z,1.13
2022-11-24T23:26:26.685Z,1.10
2022-11-24T23:28:53.647Z,1.13
2022-11-24T23:31:24.290Z,0.80
2022-11-24T23:33:50.883Z,1.10
2022-11-24T23:36:19.255Z,1.20
2022-11-24T23:38:46.222Z,0.90
2022-11-24T23:41:16.460Z,1.77
2022-11-24T23:43:43.337Z,1.25
2022-11-24T23:46:18.130Z,1.35
2022-11-24T23:48:45.367Z,1.17
2022-11-24T23:51:14.642Z,0.95
2022-11-24T23:53:42.313Z,0.95
2022-11-24T23:56:11.734Z,1.70
2022-11-24T23:58:38.409Z,1.45
